Time;durP1;ratioP1;P1;durP2;ratioP2;P2;SDS_P1;SDS_P2;PMS_P1;PMS_P2;Temp;Humidity;BMP_temperature;BMP_pressure;BME280_temperature;BME280_humidity;BME280_pressure;Samples;Min_cycle;Max_cycle;Signal;HPM_P1;HPM_P2
2021/08/09 00:02:42;;;;;;;5.18;1.52;;;13.30;99.90;;;13.74;100.00;95385.00;2471546;53;26678;-56
2021/08/09 00:05:29;;;;;;;3.77;1.40;;;13.30;99.90;;;13.68;100.00;95383.00;2439536;54;26691;-56
2021/08/09 00:08:15;;;;;;;3.83;1.50;;;13.20;99.90;;;13.64;100.00;95382.00;2217155;55;27166;-56
2021/08/09 00:11:01;;;;;;;4.05;1.33;;;13.20;99.90;;;13.58;100.00;95372.00;2444557;54;26647;-56
2021/08/09 00:13:48;;;;;;;3.42;1.27;;;13.20;99.90;;;13.59;100.00;95371.00;2237253;54;26564;-56
2021/08/09 00:16:34;;;;;;;3.42;1.50;;;13.20;99.90;;;13.71;100.00;95372.00;2451960;54;27179;-56
2021/08/09 00:19:21;;;;;;;3.30;1.70;;;13.30;99.90;;;13.87;100.00;95372.00;2217026;55;26969;-56
2021/08/09 00:22:07;;;;;;;2.22;1.52;;;13.40;99.90;;;13.89;100.00;95375.00;2437087;54;26638;-56
2021/08/09 00:24:54;;;;;;;4.37;1.70;;;13.40;99.90;;;13.86;100.00;95365.00;2218640;55;27198;-57
2021/08/09 00:27:40;;;;;;;2.58;1.40;;;13.40;99.90;;;13.84;100.00;95372.00;2448574;54;26735;-57
2021/08/09 00:30:26;;;;;;;3.17;1.47;;;13.30;99.90;;;13.85;100.00;95371.00;2449979;54;27279;-56
2021/08/09 00:33:13;;;;;;;1.62;1.40;;;13.30;99.90;;;13.84;100.00;95372.00;2237979;54;26726;-58
2021/08/09 00:35:59;;;;;;;6.43;1.60;;;13.30;99.90;;;13.79;100.00;95375.00;2466125;53;26640;-56
2021/08/09 00:38:46;;;;;;;2.87;1.55;;;13.30;99.90;;;13.73;100.00;95370.00;2239280;53;26861;-56
2021/08/09 00:44:29;;;;;;;3.53;1.50;;;13.10;99.90;;;13.60;100.00;95359.00;2355566;56;33496;-56
2021/08/09 00:47:16;;;;;;;4.27;1.70;;;13.10;99.90;;;13.48;100.00;95369.00;2147960;56;26751;-57
2021/08/09 00:50:02;;;;;;;4.40;1.60;;;13.10;99.90;;;13.55;100.00;95372.00;2114218;58;26893;-57
2021/08/09 00:52:50;;;;;;;3.37;1.42;;;13.10;99.90;;;13.54;100.00;95360.00;2312845;57;27314;-56
2021/08/09 00:58:33;;;;;;;2.13;1.40;;;13.10;99.90;;;13.70;100.00;95328.00;2386690;55;34249;-56
2021/08/09 01:01:20;;;;;;;2.85;1.30;;;13.00;99.90;;;13.37;100.00;95351.00;2372091;56;26671;-57
2021/08/09 01:07:06;;;;;;;5.33;1.50;;;12.70;99.90;;;13.21;100.00;95343.00;2420949;55;34602;-56
2021/08/09 01:09:59;;;;;;;4.65;1.30;;;12.60;99.90;;;13.02;100.00;95360.00;2173877;56;26657;-57
2021/08/09 01:15:55;;;;;;;4.10;1.60;;;12.80;99.90;;;13.46;100.00;95337.00;2431847;54;34214;-56
2021/08/09 01:18:42;;;;;;;3.40;1.30;;;12.90;99.90;;;13.43;100.00;95356.00;2453887;54;26709;-57
2021/08/09 01:21:32;;;;;;;3.07;1.47;;;12.80;99.90;;;13.29;100.00;95354.00;2209639;54;26966;-56
2021/08/09 01:24:30;;;;;;;3.35;1.45;;;12.80;99.90;;;13.19;100.00;95356.00;2450306;54;26780;-57
2021/08/09 01:27:28;;;;;;;2.00;1.33;;;12.80;99.90;;;13.17;100.00;95363.00;2200355;56;26803;-56
2021/08/09 01:30:15;;;;;;;1.67;1.37;;;12.70;99.90;;;13.13;100.00;95357.00;2189112;56;26691;-57
2021/08/09 01:33:01;;;;;;;3.95;1.30;;;12.80;99.90;;;13.18;100.00;95355.00;2189206;56;26705;-57
2021/08/09 01:35:51;;;;;;;3.42;1.65;;;12.90;99.90;;;13.32;100.00;95359.00;2409519;55;26637;-57
2021/08/09 01:38:37;;;;;;;1.95;1.50;;;12.90;99.90;;;13.45;100.00;95356.00;2222157;55;27190;-57
2021/08/09 01:41:25;;;;;;;3.13;1.60;;;12.90;99.90;;;13.40;100.00;95354.00;2466456;54;26685;-56
2021/08/09 01:44:14;;;;;;;2.67;1.43;;;13.00;99.90;;;13.42;100.00;95347.00;2238254;55;26635;-56
2021/08/09 01:47:00;;;;;;;4.15;1.20;;;13.00;99.90;;;13.50;100.00;95348.00;2466576;54;26828;-56
2021/08/09 01:49:47;;;;;;;3.65;1.60;;;12.90;99.90;;;13.41;100.00;95336.00;2214205;55;26796;-56
2021/08/09 01:52:35;;;;;;;2.25;1.35;;;12.90;99.90;;;13.41;100.00;95336.00;2434305;55;26665;-57
2021/08/09 01:55:21;;;;;;;1.58;1.35;;;12.90;99.90;;;13.31;100.00;95339.00;2212594;55;26596;-56
2021/08/09 01:58:08;;;;;;;3.57;1.50;;;12.80;99.90;;;13.15;100.00;95341.00;2433972;55;27128;-57
2021/08/09 02:00:54;;;;;;;2.03;1.60;;;12.70;99.90;;;13.08;100.00;95338.00;2212117;55;27420;-57
2021/08/09 02:03:41;;;;;;;1.98;1.40;;;12.60;99.90;;;13.04;100.00;95336.00;2433553;55;26657;-56
2021/08/09 02:13:07;;;;;;;3.67;1.48;;;12.50;99.90;;;12.93;100.00;95346.00;2116841;57;26903;-56
2021/08/09 02:16:00;;;;;;;2.47;1.52;;;12.60;99.90;;;13.03;100.00;95348.00;2141317;58;26738;-56
2021/08/09 02:18:52;;;;;;;2.30;1.50;;;12.60;99.90;;;13.09;100.00;95353.00;2133197;57;27633;-57
2021/08/09 02:21:44;;;;;;;2.70;1.42;;;12.60;99.90;;;13.15;100.00;95347.00;2335017;57;26767;-56
2021/08/09 02:27:38;;;;;;;2.77;1.40;;;12.70;99.90;;;13.31;100.00;95334.00;2384678;55;34176;-57
2021/08/09 02:30:28;;;;;;;3.20;1.30;;;12.70;99.90;;;13.21;100.00;95338.00;2330696;56;27409;-56
2021/08/09 02:33:15;;;;;;;1.50;1.40;;;12.70;99.90;;;13.13;100.00;95341.00;2134292;56;26666;-57
2021/08/09 02:36:03;;;;;;;2.73;1.40;;;12.70;99.90;;;13.16;100.00;95351.00;2143505;56;27252;-58
2021/08/09 02:38:50;;;;;;;3.33;1.27;;;12.80;99.90;;;13.27;100.00;95350.00;2145279;56;27155;-57
2021/08/09 02:41:37;;;;;;;2.92;1.52;;;12.80;99.90;;;13.29;100.00;95349.00;2144723;56;26952;-56
2021/08/09 02:44:25;;;;;;;3.55;1.50;;;12.80;99.90;;;13.34;100.00;95346.00;2144442;56;26977;-56
2021/08/09 02:47:13;;;;;;;4.20;1.60;;;12.80;99.90;;;13.31;100.00;95346.00;2143880;56;26831;-57
2021/08/09 02:50:00;;;;;;;2.47;1.50;;;12.80;99.90;;;13.26;100.00;95347.00;2147744;56;26967;-56
2021/08/09 02:52:47;;;;;;;2.40;1.17;;;12.70;99.90;;;13.27;100.00;95337.00;2148449;56;27344;-57
2021/08/09 02:55:35;;;;;;;3.77;1.40;;;12.70;99.90;;;13.20;100.00;95348.00;2164640;56;26911;-57
2021/08/09 02:58:22;;;;;;;4.33;1.57;;;12.60;99.90;;;13.12;100.00;95344.00;2377828;56;27062;-55
2021/08/09 03:01:10;;;;;;;6.23;1.80;;;12.60;99.90;;;13.15;100.00;95344.00;2165312;56;26929;-55
2021/08/09 03:04:00;;;;;;;1.52;1.17;;;12.60;99.90;;;13.15;100.00;95344.00;2378176;56;26731;-56
2021/08/09 03:06:47;;;;;;;2.53;1.50;;;12.60;99.90;;;13.12;100.00;95344.00;2163939;56;27152;-57
2021/08/09 03:09:35;;;;;;;3.50;1.50;;;12.60;99.90;;;13.14;100.00;95342.00;2376425;56;26692;-56
2021/08/09 03:12:21;;;;;;;2.20;1.35;;;12.70;99.90;;;13.13;100.00;95349.00;2164618;56;27088;-56
2021/08/09 03:15:10;;;;;;;4.45;1.60;;;12.70;99.90;;;13.20;100.00;95350.00;2166457;56;27316;-56
2021/08/09 03:17:57;;;;;;;2.17;1.40;;;12.70;99.90;;;13.22;100.00;95350.00;2164661;56;26717;-56
2021/08/09 03:20:44;;;;;;;3.80;1.50;;;12.70;99.90;;;13.18;100.00;95362.00;2164747;56;26647;-56
2021/08/09 03:23:30;;;;;;;4.55;1.75;;;12.70;99.90;;;13.14;100.00;95359.00;2165311;56;26838;-56
2021/08/09 03:29:13;;;;;;;3.97;1.40;;;12.70;99.90;;;13.33;100.00;95337.00;2332220;57;34646;-57
2021/08/09 03:31:59;;;;;;;3.42;1.40;;;12.70;99.90;;;13.19;100.00;95361.00;2312107;58;26773;-56
2021/08/09 03:34:45;;;;;;;6.15;1.40;;;12.70;99.90;;;13.18;100.00;95359.00;2117047;58;26240;-56
2021/08/09 03:40:30;;;;;;;6.28;1.37;;;12.60;99.90;;;13.02;100.00;95349.00;2352645;56;34540;-55
2021/08/09 03:43:16;;;;;;;3.08;1.58;;;12.60;99.90;;;13.08;100.00;95365.00;2122925;57;26623;-57
2021/08/09 03:46:02;;;;;;;1.55;1.45;;;12.60;99.90;;;13.04;100.00;95366.00;2330804;56;26724;-56
2021/08/09 03:51:46;;;;;;;3.05;1.40;;;12.50;99.90;;;12.99;100.00;95352.00;2510712;53;33993;-57
2021/08/09 03:54:32;;;;;;;3.97;1.50;;;12.50;99.90;;;12.91;100.00;95370.00;2248108;54;26652;-56
2021/08/09 03:57:19;;;;;;;3.00;1.55;;;12.50;99.90;;;12.89;100.00;95366.00;2255014;54;26715;-57
2021/08/09 04:03:04;;;;;;;4.97;1.52;;;12.50;99.90;;;13.05;100.00;95354.00;2555575;52;33280;-57
2021/08/09 04:05:50;;;;;;;2.78;1.58;;;12.40;99.90;;;12.93;100.00;95367.00;2266913;54;26635;-57
2021/08/09 04:08:39;;;;;;;2.87;1.50;;;12.30;99.90;;;12.81;100.00;95373.00;2484209;53;26544;-56
2021/08/09 04:11:26;;;;;;;2.87;1.60;;;12.30;99.90;;;12.82;100.00;95372.00;2242521;53;26857;-55
2021/08/09 04:14:12;;;;;;;3.23;1.30;;;12.30;99.90;;;12.82;100.00;95375.00;2470670;53;26755;-56
2021/08/09 04:16:59;;;;;;;5.45;1.67;;;12.20;99.90;;;12.71;100.00;95374.00;2243247;53;26289;-56
2021/08/09 04:19:45;;;;;;;3.17;1.40;;;12.20;99.90;;;12.67;100.00;95367.00;2470874;53;27170;-55
2021/08/09 04:22:31;;;;;;;2.08;1.30;;;12.20;99.90;;;12.68;100.00;95371.00;2243037;53;26544;-55
2021/08/09 04:25:18;;;;;;;2.80;1.40;;;12.10;99.90;;;12.57;100.00;95376.00;2471571;53;26773;-56
2021/08/09 04:28:04;;;;;;;2.17;1.48;;;12.10;99.90;;;12.50;100.00;95373.00;2470662;53;26683;-56
2021/08/09 04:30:51;;;;;;;3.10;1.50;;;12.10;99.90;;;12.48;100.00;95369.00;2242481;53;26845;-57
2021/08/09 04:33:43;;;;;;;3.17;1.50;;;12.20;99.90;;;12.62;100.00;95364.00;2469949;53;26575;-56
2021/08/09 04:36:30;;;;;;;4.90;1.87;;;12.20;99.90;;;12.69;100.00;95373.00;2470275;53;27281;-56
2021/08/09 04:39:16;;;;;;;3.37;1.60;;;12.20;99.90;;;12.66;100.00;95376.00;2252196;54;26741;-57
2021/08/09 04:42:03;;;;;;;6.18;1.50;;;12.10;99.90;;;12.65;100.00;95372.00;2268331;53;26580;-56
2021/08/09 04:44:50;;;;;;;2.45;1.50;;;12.10;99.90;;;12.64;100.00;95375.00;2502504;54;26927;-56
2021/08/09 04:47:36;;;;;;;2.83;1.50;;;12.20;99.90;;;12.72;100.00;95373.00;2267807;53;26789;-59
2021/08/09 04:50:23;;;;;;;2.83;1.57;;;12.30;99.90;;;12.81;100.00;95374.00;2502533;53;26666;-56
2021/08/09 04:53:10;;;;;;;6.35;1.67;;;12.30;99.90;;;12.78;100.00;95372.00;2268457;53;27296;-56
2021/08/09 04:58:52;;;;;;;1.60;1.40;;;12.30;99.90;;;13.04;100.00;95345.00;2432359;54;34169;-56
2021/08/09 05:01:38;;;;;;;2.90;1.75;;;12.40;99.90;;;12.98;100.00;95367.00;2212302;55;26655;-57
2021/08/09 05:04:25;;;;;;;1.43;1.30;;;12.60;99.90;;;13.14;100.00;95372.00;2194695;56;26808;-57
2021/08/09 05:07:11;;;;;;;1.80;1.43;;;12.70;99.90;;;13.31;100.00;95368.00;2205488;55;26630;-57
2021/08/09 05:09:57;;;;;;;1.73;1.40;;;12.80;99.90;;;13.45;100.00;95364.00;2440683;55;26550;-56
2021/08/09 05:12:44;;;;;;;2.92;1.50;;;13.00;99.90;;;13.62;100.00;95370.00;2216860;56;27176;-57
2021/08/09 05:15:32;;;;;;;2.97;1.58;;;13.20;99.90;;;13.82;100.00;95374.00;2216823;56;26096;-55
2021/08/09 05:18:19;;;;;;;5.43;1.60;;;13.30;99.90;;;13.96;100.00;95370.00;2217078;56;26578;-57
2021/08/09 05:24:04;;;;;;;2.30;1.30;;;13.70;99.90;;;14.45;100.00;95362.00;2404083;55;35291;-57
2021/08/09 05:26:51;;;;;;;3.22;1.42;;;13.70;99.90;;;14.32;100.00;95370.00;2166812;56;26894;-56
2021/08/09 05:29:37;;;;;;;1.67;1.40;;;13.80;99.90;;;14.36;100.00;95372.00;2403761;55;27369;-57
2021/08/09 05:32:24;;;;;;;4.68;1.60;;;13.80;99.90;;;14.44;100.00;95379.00;2186630;56;26671;-56
2021/08/09 05:35:11;;;;;;;4.40;1.30;;;13.70;99.90;;;14.36;100.00;95377.00;2403579;55;26731;-56
2021/08/09 05:40:54;;;;;;;1.77;1.30;;;13.50;99.90;;;14.17;100.00;95368.00;2453805;54;33884;-55
2021/08/09 05:43:40;;;;;;;2.58;1.27;;;13.40;99.90;;;13.93;100.00;95382.00;2209355;55;26860;-56
2021/08/09 05:46:27;;;;;;;4.55;1.40;;;13.50;99.90;;;14.16;100.00;95392.00;2438759;55;26704;-57
2021/08/09 05:52:19;;;;;;;2.50;1.35;;;13.60;99.90;;;14.30;100.00;95380.00;2433513;55;34484;-57
2021/08/09 05:58:05;;;;;;;2.17;1.37;;;13.60;99.90;;;14.31;100.00;95384.00;2489541;53;33827;-56
2021/08/09 06:00:51;;;;;;;3.47;1.60;;;13.60;99.90;;;14.31;100.00;95384.00;2235098;55;26779;-57
2021/08/09 06:03:41;;;;;;;4.28;1.45;;;13.60;99.90;;;14.30;100.00;95383.00;2245262;55;26232;-56
2021/08/09 06:06:27;;;;;;;2.10;1.65;;;13.70;99.90;;;14.36;100.00;95383.00;2231052;55;27246;-57
2021/08/09 06:09:13;;;;;;;2.45;1.37;;;13.70;99.90;;;14.30;100.00;95383.00;2253768;54;26635;-55
2021/08/09 06:12:00;;;;;;;4.97;1.70;;;13.80;99.90;;;14.60;100.00;95382.00;2503856;53;26785;-57
2021/08/09 06:14:46;;;;;;;4.13;1.60;;;13.80;99.90;;;14.49;100.00;95387.00;2270344;54;26818;-56
2021/08/09 06:20:30;;;;;;;2.00;1.58;;;14.10;99.90;;;14.92;100.00;95364.00;2391584;55;34140;-56
2021/08/09 06:23:17;;;;;;;1.73;1.50;;;14.20;99.90;;;14.94;100.00;95365.00;2144707;57;26766;-56
2021/08/09 06:26:03;;;;;;;4.53;1.60;;;14.50;99.90;;;15.57;100.00;95357.00;2143627;56;26706;-56
2021/08/09 06:28:49;;;;;;;4.82;1.70;;;15.20;99.90;;;16.78;100.00;95362.00;2375995;56;26110;-57
2021/08/09 06:31:36;;;;;;;3.12;1.40;;;16.50;99.90;;;18.56;100.00;95355.00;2163119;56;27586;-57
2021/08/09 06:34:22;;;;;;;1.98;1.20;;;18.10;99.90;;;20.71;100.00;95357.00;2376340;56;26846;-58
2021/08/09 06:37:09;;;;;;;2.37;1.25;;;19.80;99.90;;;23.12;100.00;95354.00;2163162;57;26844;-57
2021/08/09 06:39:55;;;;;;;2.78;1.48;;;21.40;99.90;;;24.67;100.00;95342.00;2377269;56;27245;-56
2021/08/09 06:42:41;;;;;;;2.35;1.40;;;22.60;99.90;;;25.86;100.00;95341.00;2163452;57;26576;-55
2021/08/09 06:45:28;;;;;;;1.87;1.15;;;23.60;99.90;;;27.07;100.00;95349.00;2376855;56;26871;-54
2021/08/09 06:48:14;;;;;;;2.62;1.30;;;23.90;99.90;;;27.30;100.00;95352.00;2170650;57;26666;-54
2021/08/09 06:51:00;;;;;;;2.58;1.30;;;24.40;99.90;;;28.15;100.00;95360.00;2187898;57;26257;-56
2021/08/09 06:53:47;;;;;;;4.00;1.60;;;25.00;99.90;;;29.01;100.00;95348.00;2406059;56;27036;-55
2021/08/09 06:56:33;;;;;;;2.80;1.37;;;26.10;99.90;;;29.27;89.96;95355.00;2186414;57;26842;-54
2021/08/09 07:02:16;;;;;;;3.15;1.20;;;26.20;99.90;;;30.24;77.86;95338.00;2496084;52;34050;-54
2021/08/09 07:05:04;;;;;;;2.53;1.17;;;26.60;99.90;;;30.04;74.60;95337.00;2219824;54;25769;-54
2021/08/09 07:07:51;;;;;;;2.35;1.40;;;26.60;99.90;;;30.73;82.65;95330.00;2424220;55;25849;-56
2021/08/09 07:10:39;;;;;;;1.65;1.00;;;26.70;99.90;;;30.12;70.88;95329.00;2216405;55;26784;-55
2021/08/09 07:16:24;;;;;;;2.72;1.30;;;26.70;99.90;;;30.76;62.77;95306.00;2384310;54;32609;-58
2021/08/09 07:19:11;;;;;;;3.25;1.17;;;27.50;99.90;;;30.80;64.78;95325.00;2389536;56;26823;-58
2021/08/09 07:21:58;;;;;;;2.87;1.10;;;27.60;99.90;;;29.85;71.89;95316.00;2183313;57;25735;-57
2021/08/09 07:24:44;;;;;;;1.20;1.00;;;27.00;99.90;;;29.85;74.21;95321.00;2400138;56;25595;-58
2021/08/09 07:27:30;;;;;;;3.05;1.05;;;27.00;99.90;;;29.74;80.05;95326.00;2182580;57;25643;-56
2021/08/09 07:30:18;;;;;;;1.60;1.17;;;27.60;99.90;;;30.91;65.09;95326.00;2400101;56;26145;-57
2021/08/09 07:36:04;;;;;;;1.73;1.15;;;28.10;99.90;;;31.39;57.43;95329.00;2446403;54;32810;-55
2021/08/09 07:38:50;;;;;;;1.80;1.15;;;28.50;99.90;;;31.94;58.93;95346.00;2185186;55;25719;-60
2021/08/09 07:41:37;;;;;;;2.37;1.30;;;28.90;99.90;;;32.63;53.79;95346.00;2401950;55;25846;-55
2021/08/09 07:44:23;;;;;;;2.80;1.30;;;28.00;99.90;;;31.26;61.90;95341.00;2181877;56;25732;-56
2021/08/09 07:47:10;;;;;;;1.95;1.30;;;28.10;99.90;;;31.57;58.34;95341.00;2396776;56;26664;-55
2021/08/09 07:49:56;;;;;;;1.33;1.10;;;28.50;99.90;;;32.12;68.07;95331.00;2178634;56;26196;-56
2021/08/09 07:52:42;;;;;;;2.15;1.20;;;29.80;99.90;;;34.07;66.00;95324.00;2407169;55;25699;-56
2021/08/09 07:55:29;;;;;;;2.83;1.30;;;30.30;99.90;;;34.29;49.57;95333.00;2213227;56;25639;-56
2021/08/09 07:58:15;;;;;;;1.52;1.20;;;30.40;99.90;;;34.26;55.24;95325.00;2214060;56;25711;-55
2021/08/09 08:01:01;;;;;;;2.53;1.40;;;30.80;99.90;;;34.46;48.93;95326.00;2213701;56;26015;-56
2021/08/09 08:03:48;;;;;;;2.20;1.20;;;31.10;99.90;;;34.13;52.39;95322.00;2213532;56;25682;-55
2021/08/09 08:06:34;;;;;;;2.15;1.20;;;31.20;99.90;;;34.72;51.67;95324.00;2213636;56;25675;-55
2021/08/09 08:15:14;;;;;;;1.92;1.40;;;31.50;99.90;;;33.47;46.35;95321.00;2468926;54;33004;-55
2021/08/09 08:18:00;;;;;;;1.67;1.30;;;31.10;99.90;;;33.03;49.68;95335.00;2228061;55;25772;-56
2021/08/09 08:20:48;;;;;;;1.92;1.40;;;30.30;99.90;;;32.40;48.80;95327.00;2236353;54;25845;-55
2021/08/09 08:23:34;;;;;;;1.67;1.15;;;30.40;99.90;;;32.46;45.45;95320.00;2464674;54;25680;-54
2021/08/09 08:26:21;;;;;;;2.33;1.40;;;29.00;99.90;;;30.57;50.17;95320.00;2235847;55;26182;-56
2021/08/09 08:29:07;;;;;;;2.25;1.30;;;29.20;99.90;;;31.42;51.27;95312.00;2465486;54;26235;-55
2021/08/09 08:31:54;;;;;;;1.75;1.20;;;29.50;99.90;;;31.53;51.84;95313.00;2237284;55;26045;-55
2021/08/09 08:34:40;;;;;;;2.28;2.05;;;29.40;99.90;;;31.26;50.90;95298.00;2464966;54;25550;-55
2021/08/09 08:37:26;;;;;;;2.75;1.62;;;29.30;99.90;;;31.81;52.60;95300.00;2237188;55;26763;-55
2021/08/09 08:40:13;;;;;;;2.22;1.62;;;29.30;99.90;;;31.35;54.40;95303.00;2465725;54;25556;-54
2021/08/09 08:42:59;;;;;;;2.58;1.27;;;30.10;99.90;;;32.55;48.77;95303.00;2222022;55;26191;-55
2021/08/09 08:45:47;;;;;;;2.03;1.30;;;30.30;99.90;;;32.51;47.40;95310.00;2206958;56;27095;-55
2021/08/09 08:48:36;;;;;;;1.73;1.33;;;29.50;99.90;;;31.02;56.13;95302.00;2441652;55;25535;-55
2021/08/09 08:51:23;;;;;;;1.95;1.30;;;30.00;99.90;;;32.48;51.09;95307.00;2245145;54;25565;-55
2021/08/09 08:57:16;;;;;;;3.62;1.98;;;30.40;99.90;;;32.36;55.41;95305.00;2481755;53;32595;-56
2021/08/09 09:02:58;;;;;;;2.90;1.40;;;29.20;99.90;;;31.02;56.53;95313.00;2377890;55;34279;-57
2021/08/09 09:08:55;;;;;;;1.70;1.27;;;29.10;99.90;;;31.22;57.94;95321.00;2475478;53;34984;-58
2021/08/09 09:11:41;;;;;;;2.12;1.37;;;29.60;99.90;;;31.89;55.07;95321.00;2262041;55;27299;-57
2021/08/09 09:14:31;;;;;;;4.00;2.37;;;29.30;99.90;;;31.19;59.72;95319.00;2497137;54;26031;-54
2021/08/09 09:17:33;;;;;;;2.30;1.27;;;28.90;99.90;;;30.79;63.10;95315.00;2263289;55;25110;-55
2021/08/09 09:20:25;;;;;;;4.20;1.20;;;28.90;99.90;;;30.81;61.88;95323.00;2262429;54;25808;-55
2021/08/09 09:23:17;;;;;;;4.12;1.37;;;28.80;99.90;;;30.44;56.52;95321.00;2497673;53;25592;-54
2021/08/09 09:26:22;;;;;;;1.20;1.00;;;28.80;99.90;;;31.02;56.81;95319.00;2498033;53;25697;-56
2021/08/09 09:29:11;;;;;;;1.95;1.20;;;29.40;99.90;;;31.44;49.23;95316.00;2264727;54;25677;-55
2021/08/09 09:34:56;;;;;;;3.87;1.37;;;29.00;99.90;;;30.94;57.58;95319.00;2486993;53;33611;-58
2021/08/09 09:37:50;;;;;;;1.92;1.30;;;28.60;99.90;;;30.38;52.90;95323.00;2245192;55;25791;-54
2021/08/09 09:40:41;;;;;;;1.83;1.20;;;29.00;99.90;;;31.59;54.05;95326.00;2483688;54;25209;-54
2021/08/09 09:43:39;;;;;;;2.40;1.40;;;29.90;99.90;;;32.53;49.80;95324.00;2250290;56;25611;-55
2021/08/09 09:46:29;;;;;;;1.77;1.30;;;30.10;99.90;;;32.35;51.66;95330.00;2249737;56;26682;-56
2021/08/09 09:49:33;;;;;;;1.83;1.30;;;30.00;99.90;;;31.93;56.24;95322.00;2482801;54;26731;-55
2021/08/09 09:55:37;;;;;;;1.75;1.40;;;31.30;99.90;;;32.60;53.21;95316.00;2421776;54;33093;-54
2021/08/09 09:58:25;;;;;;;3.33;1.42;;;30.90;99.90;;;32.49;56.44;95317.00;2171994;56;25676;-55
2021/08/09 10:01:11;;;;;;;1.75;1.20;;;31.10;99.90;;;32.95;52.67;95307.00;2402620;55;25106;-55
2021/08/09 10:03:57;;;;;;;1.85;1.40;;;31.10;99.90;;;32.94;51.59;95310.00;2179781;55;25796;-56
2021/08/09 10:06:46;;;;;;;1.77;1.35;;;31.00;99.90;;;33.06;47.22;95307.00;2416000;55;26191;-55
2021/08/09 10:09:33;;;;;;;1.87;1.20;;;30.20;99.90;;;31.64;45.56;95304.00;2200233;56;25809;-55
2021/08/09 10:12:23;;;;;;;1.40;1.20;;;29.70;99.90;;;31.13;60.46;95311.00;2415959;55;25681;-54
2021/08/09 10:15:10;;;;;;;2.67;1.23;;;29.40;99.90;;;31.16;59.05;95310.00;2194413;56;25661;-54
2021/08/09 10:17:57;;;;;;;1.87;1.40;;;29.70;99.90;;;31.81;52.20;95309.00;2416059;55;25669;-55
2021/08/09 10:20:44;;;;;;;2.05;1.37;;;29.50;99.90;;;30.96;60.14;95309.00;2196083;55;25603;-55
2021/08/09 10:23:40;;;;;;;2.58;1.50;;;29.90;99.90;;;32.26;47.91;95300.00;2196617;55;27746;-55
2021/08/09 10:30:15;;;;;;;2.47;1.40;;;29.50;99.90;;;30.60;63.91;95300.00;2335856;56;34065;-56
2021/08/09 10:33:07;;;;;;;2.25;1.33;;;29.30;99.90;;;30.82;64.87;95303.00;2327930;56;25574;-56
2021/08/09 10:36:03;;;;;;;4.65;1.50;;;29.50;99.90;;;31.26;55.53;95298.00;2116645;58;25599;-55
2021/08/09 10:38:50;;;;;;;2.83;1.65;;;29.60;99.90;;;31.33;55.47;95303.00;2338280;56;25703;-55
2021/08/09 10:41:38;;;;;;;2.40;1.40;;;29.30;99.90;;;30.38;74.16;95297.00;2331106;57;25615;-55
2021/08/09 10:44:26;;;;;;;1.70;1.30;;;29.40;99.90;;;30.98;58.49;95296.00;2321049;58;25623;-55
2021/08/09 10:47:55;;;;;;;1.37;1.27;;;29.10;99.90;;;30.20;57.86;95295.00;2116417;59;25099;-55
2021/08/09 10:53:52;;;;;;;1.85;1.25;;;28.10;99.90;;;29.30;62.63;95287.00;2355692;55;33820;-57
2021/08/09 10:56:46;;;;;;;1.65;1.25;;;28.50;99.90;;;29.85;66.87;95289.00;2379306;55;25577;-54
2021/08/09 10:59:46;;;;;;;2.25;1.50;;;29.40;99.90;;;31.30;66.70;95299.00;2174394;56;27214;-56
2021/08/09 11:02:35;;;;;;;1.55;1.30;;;30.30;99.90;;;31.87;55.43;95291.00;2174664;55;25992;-55
2021/08/09 11:05:28;;;;;;;1.55;1.37;;;30.30;99.90;;;31.69;53.11;95279.00;2174288;55;26871;-56
2021/08/09 11:08:46;;;;;;;3.03;1.40;;;30.70;99.90;;;31.61;59.91;95294.00;2393161;55;26152;-55
2021/08/09 11:12:11;;;;;;;9.10;3.33;;;30.30;99.90;;;31.34;62.56;95288.00;2175129;55;26405;-55
2021/08/09 11:15:18;;;;;;;2.17;1.37;;;30.60;99.90;;;31.57;52.60;95282.00;2175021;55;27428;-55
2021/08/09 11:18:04;;;;;;;2.08;1.42;;;30.80;99.90;;;31.43;52.25;95281.00;2175016;56;25686;-55
2021/08/09 11:23:58;;;;;;;2.80;1.40;;;28.50;99.90;;;28.15;53.88;95276.00;2380666;54;34672;-57
2021/08/09 11:26:44;;;;;;;2.40;1.40;;;27.40;99.90;;;27.32;73.88;95281.00;2184204;55;27646;-57
2021/08/09 11:29:50;;;;;;;1.85;1.33;;;27.40;99.90;;;27.54;63.88;95283.00;2389329;55;27788;-57
2021/08/09 11:32:38;;;;;;;3.03;1.48;;;26.90;99.90;;;27.03;77.93;95286.00;2172410;55;27010;-57
2021/08/09 11:35:25;;;;;;;2.22;1.50;;;27.00;99.90;;;27.25;84.15;95283.00;2171101;55;27054;-56
2021/08/09 11:38:12;;;;;;;2.87;1.52;;;26.30;99.90;;;26.12;70.11;95280.00;2173150;55;26740;-57
2021/08/09 11:44:04;;;;;;;1.98;1.35;;;27.20;99.90;;;28.06;92.08;95281.00;2381900;55;33913;-56
2021/08/09 11:49:55;;;;;;;2.72;1.20;;;27.50;99.90;;;27.82;75.77;95283.00;2450862;54;34809;-57
2021/08/09 11:52:41;;;;;;;3.12;1.40;;;27.40;99.90;;;27.62;63.41;95277.00;2230526;55;26117;-57
2021/08/09 11:55:27;;;;;;;2.80;1.48;;;26.90;99.90;;;27.04;74.06;95282.00;2458173;55;27373;-57
2021/08/09 12:01:36;;;;;;;2.15;1.40;;;25.60;99.90;;;25.85;85.21;95274.00;2386303;55;33772;-57
2021/08/09 12:04:23;;;;;;;2.55;1.40;;;25.90;99.90;;;26.42;83.09;95274.00;2159071;56;26172;-57
2021/08/09 12:07:19;;;;;;;1.77;1.30;;;26.10;99.90;;;26.33;78.69;95275.00;2174772;56;26601;-57
2021/08/09 12:10:07;;;;;;;2.47;1.12;;;26.40;99.90;;;26.96;76.37;95277.00;2188367;54;26850;-57
2021/08/09 12:12:54;;;;;;;2.28;1.35;;;26.60;99.90;;;27.07;90.41;95276.00;2408680;55;26842;-56
2021/08/09 12:15:40;;;;;;;1.90;1.30;;;26.80;99.90;;;27.13;77.94;95281.00;2188164;56;27330;-57
2021/08/09 12:18:26;;;;;;;2.05;1.25;;;26.90;99.90;;;27.32;73.62;95280.00;2187977;56;26731;-57
2021/08/09 12:21:14;;;;;;;3.12;1.27;;;26.10;99.90;;;26.26;77.04;95280.00;2404391;55;26117;-58
2021/08/09 12:24:01;;;;;;;3.05;1.40;;;26.40;99.90;;;27.00;83.81;95284.00;2186480;56;26897;-57
2021/08/09 12:26:49;;;;;;;2.00;1.30;;;26.70;99.90;;;27.47;79.04;95281.00;2405671;55;26709;-56
2021/08/09 12:29:35;;;;;;;1.95;1.45;;;26.90;99.90;;;27.56;77.33;95277.00;2187033;56;26240;-57
2021/08/09 12:32:22;;;;;;;2.17;1.30;;;26.90;99.90;;;27.40;75.69;95275.00;2406073;55;26947;-57
2021/08/09 12:35:11;;;;;;;1.92;1.27;;;26.10;99.90;;;26.57;72.16;95282.00;2187462;56;26748;-56
2021/08/09 12:37:58;;;;;;;1.85;1.17;;;25.90;99.90;;;26.53;91.40;95273.00;2404601;55;26213;-56
2021/08/09 12:40:46;;;;;;;1.62;1.20;;;26.00;99.90;;;26.92;93.92;95279.00;2186904;56;27195;-56
2021/08/09 12:43:33;;;;;;;2.05;1.33;;;26.50;99.90;;;27.33;79.93;95283.00;2406772;55;26181;-58
2021/08/09 12:46:20;;;;;;;1.98;1.12;;;26.80;99.90;;;27.49;75.10;95284.00;2187130;56;26941;-56
2021/08/09 12:49:06;;;;;;;2.30;1.35;;;26.60;99.90;;;27.01;92.18;95287.00;2424228;55;26737;-56
2021/08/09 12:51:53;;;;;;;2.35;1.50;;;26.80;99.90;;;27.37;93.81;95292.00;2214088;56;26606;-56
2021/08/09 12:54:39;;;;;;;2.37;1.50;;;27.10;99.90;;;27.72;76.41;95297.00;2213987;56;26159;-56
2021/08/09 12:57:25;;;;;;;3.42;1.27;;;26.90;99.90;;;27.15;82.45;95295.00;2438479;55;26753;-57
2021/08/09 13:00:15;;;;;;;5.32;1.80;;;26.80;99.90;;;26.89;81.39;95293.00;2213284;56;27180;-56
2021/08/09 13:03:02;;;;;;;3.53;1.75;;;26.90;99.90;;;27.14;93.98;95285.00;2437686;55;26799;-57
2021/08/09 13:05:48;;;;;;;4.05;1.85;;;26.90;99.90;;;27.25;89.20;95279.00;2213714;56;26682;-57
2021/08/09 13:08:35;;;;;;;2.17;1.35;;;27.10;99.90;;;27.51;79.87;95281.00;2436906;55;26738;-57
2021/08/09 13:11:21;;;;;;;3.62;1.70;;;27.10;99.90;;;27.24;79.37;95271.00;2212044;56;26798;-57
2021/08/09 13:14:08;;;;;;;1.98;1.40;;;27.10;99.90;;;27.33;78.67;95287.00;2211922;56;27268;-57
2021/08/09 13:16:54;;;;;;;1.48;1.37;;;27.20;99.90;;;27.55;80.92;95278.00;2212568;56;26551;-56
2021/08/09 13:19:40;;;;;;;2.80;1.40;;;27.20;99.90;;;27.73;73.38;95274.00;2213187;56;26604;-57
2021/08/09 13:22:29;;;;;;;3.58;1.20;;;27.30;99.90;;;27.48;79.65;95266.00;2213041;56;27247;-55
2021/08/09 13:25:15;;;;;;;3.15;1.48;;;27.00;99.90;;;27.41;80.45;95268.00;2436633;55;27345;-57